createdAt,value
2022-09-02T00:01:25.890Z,11.40
2022-09-02T00:03:58.404Z,11.40
2022-09-02T00:06:25.930Z,11.40
2022-09-02T00:08:54.088Z,11.40
2022-09-02T00:11:27.643Z,11.40
2022-09-02T00:13:57.240Z,11.30
2022-09-02T00:16:26.583Z,11.40
2022-09-02T00:18:56.498Z,11.30
2022-09-02T00:21:25.544Z,11.30
2022-09-02T00:23:53.650Z,11.30
2022-09-02T00:26:20.844Z,11.30
2022-09-02T00:28:51.084Z,11.30
2022-09-02T00:31:24.999Z,11.20
2022-09-02T00:33:53.507Z,11.20
2022-09-02T00:36:21.218Z,11.10
2022-09-02T00:38:48.806Z,11.10
2022-09-02T00:41:15.829Z,11.10
2022-09-02T00:44:14.235Z,11.10
2022-09-02T00:46:42.547Z,11.00
2022-09-02T00:49:24.183Z,11.00
2022-09-02T00:51:56.526Z,11.00
2022-09-02T00:54:25.977Z,11.00
2022-09-02T00:56:56.234Z,11.00
2022-09-02T00:59:42.321Z,11.00
2022-09-02T01:02:10.879Z,11.00
2022-09-02T01:04:38.672Z,11.00
2022-09-02T01:07:07.226Z,10.90
2022-09-02T01:09:36.297Z,10.90
2022-09-02T01:12:04.758Z,10.90
2022-09-02T01:14:32.322Z,10.90
2022-09-02T01:17:01.309Z,10.90
2022-09-02T01:19:38.763Z,10.90
2022-09-02T01:22:26.058Z,10.90
2022-09-02T01:24:56.510Z,10.80
2022-09-02T01:27:26.149Z,10.80
2022-09-02T01:29:55.797Z,10.80
2022-09-02T01:32:24.082Z,10.80
2022-09-02T01:34:52.140Z,10.80
2022-09-02T01:37:20.449Z,10.70
2022-09-02T01:39:49.694Z,10.70
2022-09-02T01:42:19.086Z,10.70
2022-09-02T01:44:47.398Z,10.70
2022-09-02T01:47:19.730Z,10.70
2022-09-02T01:49:48.833Z,10.70
2022-09-02T01:52:17.497Z,10.60
2022-09-02T01:54:46.545Z,10.60
2022-09-02T01:57:14.862Z,10.60
2022-09-02T01:59:44.659Z,10.60
2022-09-02T02:02:14.027Z,10.60
2022-09-02T02:04:42.323Z,10.60
2022-09-02T02:07:09.961Z,10.50
2022-09-02T02:09:38.206Z,10.50
2022-09-02T02:12:06.377Z,10.50
2022-09-02T02:14:34.450Z,10.50
2022-09-02T02:17:01.477Z,10.50
2022-09-02T02:19:28.456Z,10.40
2022-09-02T02:21:56.739Z,10.50
2022-09-02T02:24:25.619Z,10.50
2022-09-02T02:26:53.690Z,10.40
2022-09-02T02:29:22.515Z,10.40
2022-09-02T02:31:51.198Z,10.40
2022-09-02T02:34:19.314Z,10.50
2022-09-02T02:36:48.608Z,10.40
2022-09-02T02:39:17.160Z,10.40
2022-09-02T02:41:45.147Z,10.50
2022-09-02T02:44:12.770Z,10.50
2022-09-02T02:46:40.791Z,10.50
2022-09-02T02:49:07.920Z,10.50
2022-09-02T02:51:35.843Z,10.50
2022-09-02T02:54:05.087Z,10.50
2022-09-02T02:56:33.118Z,10.40
2022-09-02T02:59:03.473Z,10.40
2022-09-02T03:01:31.402Z,10.40
2022-09-02T03:04:00.194Z,10.40
2022-09-02T03:06:27.889Z,10.40
2022-09-02T03:08:54.826Z,10.40
2022-09-02T03:11:22.719Z,10.40
2022-09-02T03:13:50.962Z,10.40
2022-09-02T03:16:19.951Z,10.40
2022-09-02T03:18:49.074Z,10.30
2022-09-02T03:21:19.211Z,10.30
2022-09-02T03:23:48.776Z,10.30
2022-09-02T03:26:19.622Z,10.30
2022-09-02T03:28:48.602Z,10.20
2022-09-02T03:31:22.297Z,10.20
2022-09-02T03:33:50.733Z,10.20
2022-09-02T03:36:30.725Z,10.20
2022-09-02T03:38:58.392Z,10.20
2022-09-02T03:41:25.349Z,10.20
2022-09-02T03:43:53.220Z,10.20
2022-09-02T03:46:20.235Z,10.20
2022-09-02T03:48:50.313Z,10.20
2022-09-02T03:51:22.353Z,10.10
2022-09-02T03:53:51.837Z,10.10
2022-09-02T03:56:20.072Z,10.10
2022-09-02T03:58:49.807Z,10.10
2022-09-02T04:01:22.784Z,10.10
2022-09-02T04:03:51.353Z,10.10
2022-09-02T04:06:21.457Z,10.10
2022-09-02T04:08:49.890Z,10.10
2022-09-02T04:11:21.578Z,10.10
2022-09-02T04:13:51.247Z,10.10
2022-09-02T04:16:27.512Z,10.10
2022-09-02T04:18:58.748Z,10.00
2022-09-02T04:21:27.851Z,10.10
2022-09-02T04:23:56.672Z,10.10
2022-09-02T04:26:24.474Z,10.10
2022-09-02T04:28:54.221Z,10.10
2022-09-02T04:31:23.187Z,10.10
2022-09-02T04:33:51.305Z,10.10
2022-09-02T04:36:20.942Z,10.10
2022-09-02T04:38:48.622Z,10.10
2022-09-02T04:41:22.914Z,10.10
2022-09-02T04:43:55.657Z,10.10
2022-09-02T04:46:33.907Z,10.10
2022-09-02T04:49:04.230Z,10.10
2022-09-02T04:51:31.559Z,10.10
2022-09-02T04:53:58.837Z,10.10
2022-09-02T04:56:29.168Z,10.10
2022-09-02T04:58:57.367Z,10.10
2022-09-02T05:01:28.908Z,10.10
2022-09-02T05:03:56.486Z,10.10
2022-09-02T05:06:27.384Z,10.10
2022-09-02T05:08:56.572Z,10.10
2022-09-02T05:11:28.469Z,10.10
2022-09-02T05:13:58.184Z,10.10
2022-09-02T05:16:29.606Z,10.20
2022-09-02T05:18:58.625Z,10.20
2022-09-02T05:21:26.809Z,10.20
2022-09-02T05:23:54.535Z,10.20
2022-09-02T05:26:22.750Z,10.30
2022-09-02T05:28:51.083Z,10.30
2022-09-02T05:31:20.251Z,10.30
2022-09-02T05:33:48.346Z,10.40
2022-09-02T05:36:20.507Z,10.40
2022-09-02T05:38:48.822Z,10.40
2022-09-02T05:41:25.555Z,10.40
2022-09-02T05:43:57.389Z,10.40
2022-09-02T05:46:28.979Z,10.50
2022-09-02T05:49:12.536Z,10.50
2022-09-02T05:51:42.540Z,10.50
2022-09-02T05:54:19.113Z,10.50
2022-09-02T05:56:51.264Z,10.50
2022-09-02T05:59:19.009Z,10.60
2022-09-02T06:01:49.065Z,10.60
2022-09-02T06:04:17.529Z,10.60
2022-09-02T06:06:45.654Z,10.70
2022-09-02T06:09:17.020Z,10.70
2022-09-02T06:11:46.061Z,10.70
2022-09-02T06:14:15.667Z,10.80
2022-09-02T06:16:46.093Z,10.80
2022-09-02T06:19:19.157Z,10.80
2022-09-02T06:21:49.207Z,10.90
2022-09-02T06:24:17.929Z,10.90
2022-09-02T06:26:45.820Z,11.00
2022-09-02T06:29:13.845Z,11.00
2022-09-02T06:31:42.762Z,11.00
2022-09-02T06:34:13.605Z,11.10
2022-09-02T06:36:43.257Z,11.10
2022-09-02T06:39:13.357Z,11.20
2022-09-02T06:41:42.731Z,11.30
2022-09-02T06:44:11.868Z,11.40
2022-09-02T06:46:54.305Z,11.50
2022-09-02T06:49:23.696Z,11.60
2022-09-02T06:51:54.818Z,11.80
2022-09-02T06:54:24.449Z,11.90
2022-09-02T06:56:53.650Z,12.10
2022-09-02T06:59:22.508Z,12.30
2022-09-02T07:01:51.737Z,12.50
2022-09-02T07:04:38.165Z,12.60
2022-09-02T07:07:08.867Z,12.90
2022-09-02T07:09:36.694Z,13.00
2022-09-02T07:12:05.899Z,13.00
2022-09-02T07:14:38.719Z,13.10
2022-09-02T07:17:08.924Z,13.20
2022-09-02T07:19:38.200Z,13.20
2022-09-02T07:22:06.301Z,13.40
2022-09-02T07:24:34.159Z,13.30
2022-09-02T07:27:02.087Z,13.30
2022-09-02T07:29:29.877Z,13.20
2022-09-02T07:31:58.569Z,13.20
2022-09-02T07:34:25.533Z,13.20
2022-09-02T07:36:53.181Z,13.20
2022-09-02T07:39:21.393Z,13.20
2022-09-02T07:41:51.204Z,13.10
2022-09-02T07:44:21.880Z,13.10
2022-09-02T07:46:49.707Z,13.20
2022-09-02T07:49:22.047Z,13.20
2022-09-02T07:51:52.147Z,13.30
2022-09-02T07:54:22.513Z,13.30
2022-09-02T07:56:50.278Z,13.30
2022-09-02T07:59:18.986Z,13.30
2022-09-02T08:01:48.345Z,13.30
2022-09-02T08:04:16.552Z,13.40
2022-09-02T08:06:45.749Z,13.40
2022-09-02T08:09:13.110Z,13.50
2022-09-02T08:11:44.431Z,13.50
2022-09-02T08:14:14.558Z,13.40
2022-09-02T08:16:46.799Z,13.40
2022-09-02T08:19:15.006Z,13.50
2022-09-02T08:21:43.356Z,13.60
2022-09-02T08:24:12.608Z,13.70
2022-09-02T08:26:40.302Z,13.70
2022-09-02T08:29:08.935Z,13.90
2022-09-02T08:31:38.383Z,13.90
2022-09-02T08:34:06.167Z,14.00
2022-09-02T08:36:34.825Z,14.00
2022-09-02T08:39:04.336Z,14.00
2022-09-02T08:41:42.089Z,14.10
2022-09-02T08:44:14.052Z,14.10
2022-09-02T08:46:41.924Z,14.10
2022-09-02T08:49:13.713Z,14.20
2022-09-02T08:51:52.888Z,14.20
2022-09-02T08:54:50.923Z,14.30
2022-09-02T08:57:20.034Z,14.30
2022-09-02T08:59:48.993Z,14.40
2022-09-02T09:02:35.496Z,14.40
2022-09-02T09:05:25.585Z,14.40
2022-09-02T09:08:09.645Z,14.60
2022-09-02T09:11:00.930Z,14.60
2022-09-02T09:13:55.758Z,14.80
2022-09-02T09:16:52.847Z,14.90
2022-09-02T09:20:00.876Z,15.00
2022-09-02T09:22:39.305Z,15.00
2022-09-02T09:25:12.221Z,15.10
2022-09-02T09:27:40.568Z,15.10
2022-09-02T09:30:14.477Z,15.20
2022-09-02T09:32:57.471Z,15.30
2022-09-02T09:35:46.749Z,15.50
2022-09-02T09:38:14.717Z,15.40
2022-09-02T09:40:42.399Z,15.30
2022-09-02T09:43:14.805Z,15.20
2022-09-02T09:45:49.418Z,15.20
2022-09-02T09:48:30.161Z,15.10
2022-09-02T09:50:57.702Z,14.90
2022-09-02T09:53:34.115Z,14.90
2022-09-02T09:56:23.249Z,14.80
2022-09-02T09:58:51.565Z,14.70
2022-09-02T10:01:25.318Z,14.60
2022-09-02T10:04:12.216Z,14.50
2022-09-02T10:06:48.989Z,14.50
2022-09-02T10:09:22.317Z,14.50
2022-09-02T10:11:57.693Z,14.50
2022-09-02T10:14:27.829Z,14.70
2022-09-02T10:17:11.918Z,14.90
2022-09-02T10:19:48.202Z,15.20
2022-09-02T10:23:01.249Z,15.30
2022-09-02T10:25:59.474Z,15.40
2022-09-02T10:28:43.187Z,15.60
2022-09-02T10:31:23.809Z,15.80
2022-09-02T10:34:17.194Z,16.00
2022-09-02T10:37:06.932Z,16.10
2022-09-02T10:39:39.758Z,16.10
2022-09-02T10:42:24.625Z,16.20
2022-09-02T10:45:14.330Z,16.20
2022-09-02T10:47:42.354Z,16.30
2022-09-02T10:50:20.922Z,16.30
2022-09-02T10:52:53.714Z,16.20
2022-09-02T10:55:25.997Z,16.10
2022-09-02T10:58:19.934Z,16.10
2022-09-02T11:00:51.753Z,16.20
2022-09-02T11:03:43.908Z,16.20
2022-09-02T11:06:26.231Z,16.20
2022-09-02T11:09:14.258Z,16.00
2022-09-02T11:11:49.642Z,16.00
2022-09-02T11:14:35.208Z,16.10
2022-09-02T11:17:14.894Z,16.10
2022-09-02T11:20:21.357Z,16.30
2022-09-02T11:23:15.381Z,16.50
2022-09-02T11:26:14.142Z,16.80
2022-09-02T11:28:44.829Z,16.80
2022-09-02T11:31:26.202Z,16.70
2022-09-02T11:33:57.749Z,16.70
2022-09-02T11:36:26.391Z,16.60
2022-09-02T11:39:09.731Z,16.70
2022-09-02T11:41:50.195Z,17.00
2022-09-02T11:44:52.725Z,17.20
2022-09-02T11:47:37.699Z,17.30
2022-09-02T11:50:24.373Z,17.20
2022-09-02T11:53:04.745Z,17.10
2022-09-02T11:55:43.514Z,16.80
2022-09-02T11:58:11.426Z,16.50
2022-09-02T12:01:00.142Z,16.30
2022-09-02T12:03:58.445Z,16.00
2022-09-02T12:06:21.275Z,15.70
2022-09-02T12:08:50.611Z,15.40
2022-09-02T12:11:38.005Z,15.20
2022-09-02T12:14:25.546Z,15.10
2022-09-02T12:17:05.692Z,15.00
2022-09-02T12:19:40.098Z,14.90
2022-09-02T12:22:17.746Z,14.90
2022-09-02T12:24:57.257Z,14.90
2022-09-02T12:27:36.684Z,15.00
2022-09-02T12:30:15.662Z,14.90
2022-09-02T12:32:50.634Z,14.90
2022-09-02T12:35:31.392Z,14.90
2022-09-02T12:38:11.390Z,15.10
2022-09-02T12:41:07.850Z,15.40
2022-09-02T12:43:47.195Z,15.50
2022-09-02T12:46:37.272Z,15.80
2022-09-02T12:49:35.576Z,16.10
2022-09-02T12:52:25.286Z,16.50
2022-09-02T12:54:55.530Z,16.80
2022-09-02T12:57:43.177Z,17.10
2022-09-02T13:00:15.944Z,17.40
2022-09-02T13:03:00.036Z,17.60
2022-09-02T13:05:37.422Z,18.00
2022-09-02T13:08:40.493Z,18.10
2022-09-02T13:11:15.253Z,18.00
2022-09-02T13:14:17.120Z,18.20
2022-09-02T13:16:56.385Z,18.30
2022-09-02T13:19:47.945Z,18.50
2022-09-02T13:22:31.167Z,18.30
2022-09-02T13:25:12.914Z,18.40
2022-09-02T13:27:55.913Z,18.30
2022-09-02T13:30:31.645Z,18.10
2022-09-02T13:33:11.466Z,17.90
2022-09-02T13:35:41.715Z,17.70
2022-09-02T13:40:46.320Z,17.40
2022-09-02T13:43:15.733Z,17.30
2022-09-02T13:45:44.838Z,17.20
2022-09-02T13:48:39.829Z,17.30
2022-09-02T13:51:13.642Z,17.20
2022-09-02T13:54:04.985Z,17.30
2022-09-02T13:56:32.852Z,17.50
2022-09-02T13:59:01.945Z,17.50
2022-09-02T14:01:32.791Z,17.50
2022-09-02T14:04:06.051Z,17.40
2022-09-02T14:06:37.993Z,17.20
2022-09-02T14:09:22.915Z,17.00
2022-09-02T14:11:53.793Z,17.00
2022-09-02T14:14:24.276Z,16.90
2022-09-02T14:16:52.770Z,16.80
2022-09-02T14:19:20.512Z,16.80
2022-09-02T14:21:56.362Z,16.90
2022-09-02T14:24:29.052Z,17.00
2022-09-02T14:26:58.555Z,17.10
2022-09-02T14:29:31.227Z,17.40
2022-09-02T14:32:24.038Z,17.60
2022-09-02T14:35:11.905Z,17.90
2022-09-02T14:37:53.821Z,17.90
2022-09-02T14:40:43.375Z,17.90
2022-09-02T14:43:16.333Z,18.10
2022-09-02T14:45:50.011Z,18.20
2022-09-02T14:48:24.072Z,18.30
2022-09-02T14:51:02.665Z,18.10
2022-09-02T14:53:32.258Z,18.00
2022-09-02T14:56:00.971Z,17.90
2022-09-02T14:58:29.488Z,17.70
2022-09-02T15:01:01.308Z,17.50
2022-09-02T15:03:30.877Z,17.30
2022-09-02T15:05:59.322Z,17.30
2022-09-02T15:08:27.704Z,17.20
2022-09-02T15:11:00.098Z,17.10
2022-09-02T15:13:32.650Z,17.00
2022-09-02T15:16:00.891Z,17.00
2022-09-02T15:18:27.954Z,16.90
2022-09-02T15:20:56.206Z,16.80
2022-09-02T15:23:24.857Z,16.70
2022-09-02T15:25:54.738Z,16.70
2022-09-02T15:28:22.298Z,16.70
2022-09-02T15:30:49.249Z,16.60
2022-09-02T15:33:18.233Z,16.70
2022-09-02T15:35:47.548Z,16.70
2022-09-02T15:38:15.987Z,16.60
2022-09-02T15:40:45.345Z,16.60
2022-09-02T15:43:14.006Z,16.60
2022-09-02T15:45:47.683Z,16.50
2022-09-02T15:48:15.910Z,16.50
2022-09-02T15:50:46.502Z,16.40
2022-09-02T15:53:16.077Z,16.20
2022-09-02T15:55:43.768Z,16.00
2022-09-02T15:58:12.161Z,16.00
2022-09-02T16:00:43.879Z,15.90
2022-09-02T16:03:11.728Z,15.80
2022-09-02T16:05:43.161Z,15.70
2022-09-02T16:08:12.194Z,15.70
2022-09-02T16:10:41.068Z,15.70
2022-09-02T16:13:08.087Z,15.70
2022-09-02T16:15:35.766Z,15.60
2022-09-02T16:18:04.092Z,15.60
2022-09-02T16:20:31.034Z,15.50
2022-09-02T16:22:59.746Z,15.50
2022-09-02T16:25:27.975Z,15.40
2022-09-02T16:27:56.557Z,15.40
2022-09-02T16:30:25.773Z,15.30
2022-09-02T16:32:54.358Z,15.30
2022-09-02T16:35:22.018Z,15.10
2022-09-02T16:37:50.968Z,15.10
2022-09-02T16:40:21.747Z,14.90
2022-09-02T16:42:50.271Z,14.80
2022-09-02T16:45:19.640Z,14.80
2022-09-02T16:47:47.256Z,14.80
2022-09-02T16:50:15.151Z,14.70
2022-09-02T16:52:43.638Z,14.60
2022-09-02T16:55:21.023Z,14.60
2022-09-02T16:57:48.882Z,14.50
2022-09-02T17:00:17.430Z,14.50
2022-09-02T17:02:44.463Z,14.50
2022-09-02T17:05:14.454Z,14.40
2022-09-02T17:07:46.989Z,14.40
2022-09-02T17:10:14.139Z,14.40
2022-09-02T17:12:43.199Z,14.30
2022-09-02T17:15:12.517Z,14.30
2022-09-02T17:17:40.447Z,14.20
2022-09-02T17:20:09.320Z,14.20
2022-09-02T17:22:36.246Z,14.20
2022-09-02T17:25:04.359Z,14.20
2022-09-02T17:27:33.216Z,14.10
2022-09-02T17:30:01.759Z,14.10
2022-09-02T17:32:32.071Z,14.00
2022-09-02T17:35:02.205Z,14.00
2022-09-02T17:37:29.278Z,13.90
2022-09-02T17:39:57.513Z,13.80
2022-09-02T17:42:25.529Z,13.80
2022-09-02T17:44:52.557Z,13.80
2022-09-02T17:47:22.554Z,13.60
2022-09-02T17:49:50.462Z,13.50
2022-09-02T17:52:24.162Z,13.50
2022-09-02T17:54:53.645Z,13.40
2022-09-02T17:57:24.159Z,13.30
2022-09-02T18:00:13.466Z,13.30
2022-09-02T18:02:48.180Z,13.20
2022-09-02T18:05:47.331Z,13.10
2022-09-02T18:08:36.818Z,13.00
2022-09-02T18:11:07.480Z,12.90
2022-09-02T18:14:00.292Z,12.90
2022-09-02T18:16:51.768Z,12.80
2022-09-02T18:19:19.673Z,12.70
2022-09-02T18:22:06.409Z,12.60
2022-09-02T18:24:43.941Z,12.50
2022-09-02T18:27:27.248Z,12.40
2022-09-02T18:30:21.277Z,12.30
2022-09-02T18:33:30.010Z,12.20
2022-09-02T18:35:58.905Z,12.20
2022-09-02T18:38:41.231Z,12.10
2022-09-02T18:41:49.189Z,12.00
2022-09-02T18:44:39.935Z,12.00
2022-09-02T18:47:12.703Z,11.90
2022-09-02T18:49:42.683Z,11.80
2022-09-02T18:52:12.281Z,11.80
2022-09-02T18:54:40.762Z,11.70
2022-09-02T18:57:09.422Z,11.70
2022-09-02T19:00:10.510Z,11.60
2022-09-02T19:03:01.113Z,11.60
2022-09-02T19:05:36.225Z,11.60
2022-09-02T19:08:32.778Z,11.50
2022-09-02T19:11:17.123Z,11.40
2022-09-02T19:13:53.064Z,11.40
2022-09-02T19:16:27.477Z,11.30
2022-09-02T19:18:55.442Z,11.20
2022-09-02T19:21:40.751Z,11.20
2022-09-02T19:24:13.434Z,11.20
2022-09-02T19:26:43.788Z,11.10
2022-09-02T19:29:16.100Z,11.00
2022-09-02T19:31:46.744Z,11.00
2022-09-02T19:34:16.442Z,10.90
2022-09-02T19:36:47.457Z,10.90
2022-09-02T19:39:15.093Z,10.80
2022-09-02T19:41:43.507Z,10.90
2022-09-02T19:44:15.409Z,10.80
2022-09-02T19:49:37.170Z,10.70
2022-09-02T19:52:05.864Z,10.60
2022-09-02T19:54:33.727Z,10.60
2022-09-02T19:57:02.834Z,10.50
2022-09-02T19:59:31.695Z,10.50
2022-09-02T20:01:59.464Z,10.40
2022-09-02T20:04:29.904Z,10.30
2022-09-02T20:06:59.158Z,10.20
2022-09-02T20:09:29.056Z,10.20
2022-09-02T20:11:57.854Z,10.20
2022-09-02T20:14:26.322Z,10.10
2022-09-02T20:17:00.102Z,10.20
2022-09-02T20:19:28.671Z,10.20
2022-09-02T20:21:55.590Z,10.20
2022-09-02T20:24:31.520Z,10.20
2022-09-02T20:27:05.462Z,10.20
2022-09-02T20:29:48.073Z,10.10
2022-09-02T20:32:36.718Z,10.10
2022-09-02T20:35:24.370Z,10.00
2022-09-02T20:38:05.962Z,9.90
2022-09-02T20:40:51.830Z,9.90
2022-09-02T20:43:40.508Z,9.90
2022-09-02T20:46:08.990Z,9.80
2022-09-02T20:48:42.414Z,9.80
2022-09-02T20:51:49.203Z,9.70
2022-09-02T20:54:43.335Z,9.80
2022-09-02T20:57:23.128Z,9.80
2022-09-02T21:00:14.681Z,9.90
2022-09-02T21:02:51.130Z,9.90
2022-09-02T21:05:24.004Z,9.80
2022-09-02T21:08:02.986Z,9.80
2022-09-02T21:10:36.205Z,9.80
2022-09-02T21:13:11.351Z,9.80
2022-09-02T21:15:50.476Z,9.80
2022-09-02T21:18:33.352Z,9.70
2022-09-02T21:21:23.533Z,9.70
2022-09-02T21:24:08.845Z,9.70
2022-09-02T21:27:06.260Z,9.60
2022-09-02T21:29:47.768Z,9.60
2022-09-02T21:32:38.442Z,9.60
2022-09-02T21:35:17.694Z,9.60
2022-09-02T21:37:45.761Z,9.50
2022-09-02T21:40:19.877Z,9.40
2022-09-02T21:43:05.663Z,9.50
2022-09-02T21:45:45.346Z,9.50
2022-09-02T21:48:33.910Z,9.40
2022-09-02T21:51:18.579Z,9.50
2022-09-02T21:54:11.292Z,9.40
2022-09-02T21:56:55.639Z,9.30
2022-09-02T21:59:48.235Z,9.30
2022-09-02T22:02:20.364Z,9.20
2022-09-02T22:05:03.281Z,9.10
2022-09-02T22:08:04.195Z,9.10
2022-09-02T22:11:32.592Z,9.10
2022-09-02T22:14:20.884Z,9.10
2022-09-02T22:17:04.443Z,9.10
2022-09-02T22:19:34.263Z,9.10
2022-09-02T22:22:14.096Z,9.00
2022-09-02T22:24:42.654Z,9.00
2022-09-02T22:27:13.206Z,8.90
2022-09-02T22:30:11.590Z,8.90
2022-09-02T22:32:43.266Z,8.80
2022-09-02T22:35:27.782Z,8.70
2022-09-02T22:38:11.864Z,8.70
2022-09-02T22:41:20.048Z,8.70
2022-09-02T22:43:58.216Z,8.80
2022-09-02T22:47:11.274Z,8.80
2022-09-02T22:50:12.664Z,8.80
2022-09-02T22:53:11.343Z,8.80
2022-09-02T22:56:02.320Z,8.80
2022-09-02T22:58:32.742Z,8.70
2022-09-02T23:01:20.362Z,8.70
2022-09-02T23:04:03.389Z,8.70
2022-09-02T23:06:32.587Z,8.70
2022-09-02T23:09:11.324Z,8.70
2022-09-02T23:12:02.317Z,8.60
2022-09-02T23:14:45.914Z,8.60
2022-09-02T23:17:33.831Z,8.60
2022-09-02T23:20:20.439Z,8.60
2022-09-02T23:22:57.657Z,8.60
2022-09-02T23:25:34.725Z,8.60
2022-09-02T23:28:28.231Z,8.70
2022-09-02T23:31:18.000Z,8.60
2022-09-02T23:33:59.050Z,8.60
2022-09-02T23:36:57.665Z,8.60
2022-09-02T23:39:31.283Z,8.60
2022-09-02T23:42:02.864Z,8.60
2022-09-02T23:44:30.434Z,8.60
2022-09-02T23:46:57.363Z,8.50
2022-09-02T23:49:35.224Z,8.50
2022-09-02T23:52:21.520Z,8.50
2022-09-02T23:54:54.887Z,8.60
2022-09-02T23:57:36.099Z,8.50
